Terminal Aerodrome Forecast
Issued by NWS Cleveland, OH

Home | Current Version | Previous Version | Graphics & Text | Print | Product List | Glossary On
Versions: 1 2 3 4 5 6 7 8 9 10 11 12 13 14 15
000
FTUS41 KCLE 051131
TAFTOL
TAF
KTOL 051131Z 0512/0612 27012KT P6SM SCT009 OVC015
      TEMPO 0515/0517 BKN009
     FM051800 23008KT P6SM SCT015 OVC025
     FM060100 VRB04KT P6SM FEW025 SCT100 OVC200=

USA.gov is the U.S. government's official web portal to all federal, state and local government web resources and services.